createdAt,value
2022-11-16T05:09:32.270Z,0.00
2022-11-16T05:10:33.216Z,0.00
2022-11-16T05:11:30.881Z,0.00
2022-11-16T05:12:31.838Z,0.00
2022-11-16T05:13:31.851Z,0.00
2022-11-16T05:14:41.171Z,0.00
2022-11-16T05:15:42.785Z,0.00
2022-11-16T05:16:42.138Z,0.00
2022-11-16T05:17:42.133Z,0.00
2022-11-16T05:18:42.146Z,0.00
2022-11-16T05:19:42.117Z,0.00
2022-11-16T05:20:42.116Z,0.00
2022-11-16T05:21:42.104Z,0.00
2022-11-16T05:22:42.088Z,0.00
2022-11-16T05:23:42.092Z,0.00
2022-11-16T05:24:42.082Z,0.00
2022-11-16T05:25:42.051Z,0.00
2022-11-16T05:26:48.630Z,0.00
2022-11-16T05:27:42.070Z,0.00
2022-11-16T05:28:42.008Z,0.00
2022-11-16T05:29:41.992Z,0.00
2022-11-16T05:30:41.964Z,0.00
2022-11-16T05:31:41.989Z,0.00
2022-11-16T05:32:41.972Z,0.00
2022-11-16T05:33:41.930Z,0.00
2022-11-16T05:34:41.918Z,0.00
2022-11-16T05:35:42.014Z,0.00
2022-11-16T05:36:41.929Z,0.00
2022-11-16T05:37:41.892Z,0.00
2022-11-16T05:38:41.891Z,0.00
2022-11-16T05:39:41.929Z,0.00
2022-11-16T05:40:41.882Z,0.00
2022-11-16T05:41:41.881Z,0.00
2022-11-16T05:42:41.885Z,0.00
2022-11-16T05:43:41.837Z,0.00
2022-11-16T05:44:41.808Z,0.00
2022-11-16T05:45:41.819Z,0.00
2022-11-16T05:46:41.820Z,0.00
2022-11-16T05:47:41.800Z,0.00
2022-11-16T05:48:41.797Z,0.00
2022-11-16T05:49:41.782Z,0.00
2022-11-16T05:50:43.142Z,0.00
2022-11-16T05:51:41.756Z,0.00
2022-11-16T05:52:41.715Z,0.00
2022-11-16T05:53:41.745Z,0.00
2022-11-16T05:54:41.698Z,0.00
2022-11-16T05:55:41.712Z,0.00
2022-11-16T05:56:41.723Z,0.00
2022-11-16T05:57:41.694Z,0.00
2022-11-16T05:58:41.679Z,0.00
2022-11-16T05:59:41.653Z,0.00
2022-11-16T06:00:41.645Z,0.00
2022-11-16T06:01:41.620Z,0.00
2022-11-16T06:02:41.723Z,0.00
2022-11-16T06:03:41.622Z,0.00
2022-11-16T06:04:41.601Z,0.00
2022-11-16T06:05:41.839Z,0.00
2022-11-16T06:06:41.605Z,0.00
2022-11-16T06:07:41.548Z,0.00
2022-11-16T06:08:41.555Z,0.00
2022-11-16T06:09:41.533Z,0.00
2022-11-16T06:10:41.613Z,0.00
2022-11-16T06:11:41.540Z,0.00
2022-11-16T06:12:41.527Z,0.00
2022-11-16T06:13:48.097Z,0.00
2022-11-16T06:14:41.492Z,0.00
2022-11-16T06:15:41.467Z,0.00
2022-11-16T06:16:41.474Z,0.00
2022-11-16T06:17:41.445Z,4.00
2022-11-16T06:18:41.467Z,4.00
2022-11-16T06:19:41.437Z,4.00
2022-11-16T06:20:41.426Z,4.00
2022-11-16T06:21:41.449Z,8.00
2022-11-16T06:22:41.386Z,4.00
2022-11-16T06:23:41.403Z,8.00
2022-11-16T06:24:41.374Z,8.00
2022-11-16T06:25:41.346Z,12.00
2022-11-16T06:26:41.369Z,12.00
2022-11-16T06:27:41.327Z,16.00
2022-11-16T06:28:41.360Z,20.00
2022-11-16T06:29:41.331Z,24.00
2022-11-16T06:30:41.313Z,24.00
2022-11-16T06:31:41.302Z,32.00
2022-11-16T06:32:41.298Z,36.00
2022-11-16T06:33:47.782Z,44.00
2022-11-16T06:34:41.247Z,48.00
2022-11-16T06:35:41.262Z,56.00
2022-11-16T06:36:41.267Z,64.00
2022-11-16T06:37:41.218Z,72.00
2022-11-16T06:38:41.205Z,76.00
2022-11-16T06:39:41.213Z,80.00
2022-11-16T06:40:41.185Z,84.00
2022-11-16T06:41:41.710Z,92.00
2022-11-16T06:42:41.160Z,112.00
2022-11-16T06:43:41.147Z,132.00
2022-11-16T06:44:41.159Z,144.00
2022-11-16T06:45:41.142Z,156.00
2022-11-16T06:46:41.147Z,172.00
2022-11-16T06:47:41.106Z,188.00
2022-11-16T06:48:41.158Z,208.00
2022-11-16T06:49:41.716Z,224.00
2022-11-16T06:50:41.091Z,248.00
2022-11-16T06:51:41.084Z,268.00
2022-11-16T06:52:41.076Z,292.00
2022-11-16T06:53:41.050Z,308.00
2022-11-16T06:54:41.022Z,336.00
2022-11-16T06:55:41.034Z,364.00
2022-11-16T06:56:41.032Z,388.00
2022-11-16T06:57:41.217Z,416.00
2022-11-16T06:58:42.980Z,448.00
2022-11-16T06:59:40.993Z,476.00
2022-11-16T07:00:40.958Z,504.00
2022-11-16T07:01:41.019Z,536.00
2022-11-16T07:02:41.009Z,564.00
2022-11-16T07:03:40.930Z,596.00
2022-11-16T07:04:40.972Z,632.00
2022-11-16T07:05:40.950Z,668.00
2022-11-16T07:06:40.911Z,700.00
2022-11-16T07:07:40.894Z,732.00
2022-11-16T07:08:40.896Z,752.00
2022-11-16T07:09:40.889Z,768.00
2022-11-16T07:10:40.875Z,800.00
2022-11-16T07:11:40.847Z,832.00
2022-11-16T07:12:40.909Z,860.00
2022-11-16T07:13:40.854Z,892.00
2022-11-16T07:14:40.823Z,912.00
2022-11-16T07:15:40.811Z,944.00
2022-11-16T07:16:40.801Z,976.00
2022-11-16T07:17:40.771Z,1000.00
2022-11-16T07:18:40.791Z,1032.00
2022-11-16T07:19:40.756Z,1064.00
2022-11-16T07:20:40.760Z,1100.00
2022-11-16T07:21:40.754Z,1132.00
2022-11-16T07:22:40.758Z,1136.00
2022-11-16T07:23:40.752Z,1148.00
2022-11-16T07:24:40.708Z,1188.00
2022-11-16T07:25:40.696Z,1224.00
2022-11-16T07:26:40.725Z,1256.00
2022-11-16T07:27:40.674Z,1296.00
2022-11-16T07:28:45.000Z,1308.00
2022-11-16T07:29:40.899Z,1344.00
2022-11-16T07:30:40.651Z,1368.00
2022-11-16T07:31:40.630Z,1368.00
2022-11-16T07:32:40.612Z,1340.00
2022-11-16T07:33:40.609Z,1360.00
2022-11-16T07:34:40.584Z,1372.00
2022-11-16T07:35:40.610Z,1596.00
2022-11-16T07:36:40.555Z,1612.00
2022-11-16T07:37:40.559Z,1424.00
2022-11-16T07:38:40.551Z,1400.00
2022-11-16T07:39:40.544Z,1412.00
2022-11-16T07:40:40.565Z,1440.00
2022-11-16T07:41:40.713Z,1484.00
2022-11-16T07:42:40.495Z,1560.00
2022-11-16T07:43:40.566Z,1572.00
2022-11-16T07:44:40.486Z,1608.00
2022-11-16T07:45:40.459Z,1612.00
2022-11-16T07:46:48.576Z,1616.00
2022-11-16T07:47:40.448Z,1672.00
2022-11-16T07:48:40.414Z,1864.00
2022-11-16T07:49:40.417Z,2056.00
2022-11-16T07:50:40.390Z,2080.00
2022-11-16T07:51:40.410Z,2032.00
2022-11-16T07:52:40.403Z,2072.00
2022-11-16T07:53:40.361Z,2348.00
2022-11-16T07:54:40.350Z,2420.00
2022-11-16T07:55:44.776Z,2724.00
2022-11-16T07:56:40.324Z,3520.00
2022-11-16T07:57:40.333Z,2640.00
2022-11-16T07:58:49.487Z,2480.00
2022-11-16T07:59:40.289Z,2500.00
2022-11-16T08:00:41.245Z,2548.00
2022-11-16T08:01:40.869Z,2628.00
2022-11-16T08:02:40.672Z,2688.00
2022-11-16T08:03:40.696Z,2728.00
2022-11-16T08:04:40.922Z,2728.00
2022-11-16T08:05:40.768Z,2764.00
2022-11-16T08:06:40.769Z,2808.00
2022-11-16T08:07:40.830Z,2920.00
2022-11-16T08:08:40.421Z,3056.00
2022-11-16T08:09:40.251Z,3148.00
2022-11-16T08:10:40.387Z,3288.00
2022-11-16T08:11:40.722Z,3444.00
2022-11-16T08:12:40.684Z,3376.00
2022-11-16T08:13:42.326Z,3248.00
2022-11-16T08:14:44.621Z,3272.00
2022-11-16T08:15:40.701Z,3240.00
2022-11-16T08:16:40.768Z,3056.00
2022-11-16T08:17:40.755Z,2884.00
2022-11-16T08:18:40.130Z,2796.00
2022-11-16T08:19:54.755Z,2896.00
2022-11-16T08:20:40.703Z,3284.00
2022-11-16T08:21:40.749Z,3388.00
2022-11-16T08:22:40.039Z,3616.00
2022-11-16T08:23:40.730Z,3812.00
2022-11-16T08:24:41.754Z,4024.00
2022-11-16T08:25:40.654Z,4296.00
2022-11-16T08:26:41.742Z,4620.00
2022-11-16T08:27:41.376Z,4908.00
2022-11-16T08:28:40.066Z,5128.00
2022-11-16T08:29:39.983Z,5300.00
2022-11-16T08:30:39.955Z,5384.00
2022-11-16T08:31:47.868Z,5324.00
2022-11-16T08:32:42.977Z,5184.00
2022-11-16T08:33:41.400Z,5024.00
2022-11-16T08:34:39.904Z,5012.00
2022-11-16T08:35:39.886Z,5148.00
2022-11-16T08:36:40.103Z,5272.00
2022-11-16T08:37:40.734Z,5368.00
2022-11-16T08:38:39.861Z,5496.00
2022-11-16T08:39:39.870Z,5520.00
2022-11-16T08:40:39.832Z,5176.00
2022-11-16T08:41:40.054Z,4812.00
2022-11-16T08:42:43.690Z,4804.00
2022-11-16T08:43:39.818Z,4780.00
2022-11-16T08:44:39.997Z,4604.00
2022-11-16T08:45:39.837Z,4584.00
2022-11-16T08:46:40.398Z,4504.00
2022-11-16T08:47:39.978Z,4524.00
2022-11-16T08:48:39.762Z,4556.00
2022-11-16T08:49:40.133Z,4436.00
2022-11-16T08:51:02.398Z,4448.00
2022-11-16T08:51:59.861Z,4584.00
2022-11-16T08:52:40.288Z,4728.00
2022-11-16T08:53:39.687Z,4844.00
2022-11-16T08:54:39.676Z,4632.00
2022-11-16T08:55:40.209Z,4424.00
2022-11-16T08:56:39.672Z,4276.00
2022-11-16T08:57:40.074Z,4232.00
2022-11-16T08:58:39.859Z,4616.00
2022-11-16T08:59:40.771Z,4832.00
2022-11-16T09:00:39.624Z,4788.00
2022-11-16T09:01:40.319Z,4796.00
2022-11-16T09:02:40.270Z,4932.00
2022-11-16T09:03:40.855Z,4980.00
2022-11-16T09:04:39.814Z,5120.00
2022-11-16T09:05:39.575Z,5432.00
2022-11-16T09:06:39.533Z,5628.00
2022-11-16T09:07:39.566Z,5320.00
2022-11-16T09:08:40.459Z,5268.00
2022-11-16T09:09:41.415Z,5532.00
2022-11-16T09:10:39.521Z,5688.00
2022-11-16T09:11:41.545Z,6012.00
2022-11-16T09:12:39.464Z,6312.00
2022-11-16T09:14:00.809Z,6544.00
2022-11-16T09:14:41.398Z,6828.00
2022-11-16T09:15:39.434Z,6972.00
2022-11-16T09:16:40.292Z,7068.00
2022-11-16T09:17:42.096Z,7248.00
2022-11-16T09:18:40.253Z,7216.00
2022-11-16T09:19:42.886Z,7312.00
2022-11-16T09:20:40.747Z,7628.00
2022-11-16T09:21:39.373Z,7856.00
2022-11-16T09:22:40.254Z,7808.00
2022-11-16T09:23:39.350Z,7884.00
2022-11-16T09:24:41.116Z,8040.00
2022-11-16T09:25:39.556Z,8196.00
2022-11-16T09:26:40.229Z,8312.00
2022-11-16T09:27:39.338Z,8404.00
2022-11-16T09:28:39.302Z,8480.00
2022-11-16T09:29:40.237Z,8596.00
2022-11-16T09:30:39.376Z,8672.00
2022-11-16T09:31:39.262Z,8736.00
2022-11-16T09:32:39.458Z,8844.00
2022-11-16T09:33:42.400Z,8968.00
2022-11-16T09:34:39.223Z,9040.00
2022-11-16T09:35:39.235Z,9088.00
2022-11-16T09:36:43.500Z,9168.00
2022-11-16T09:37:42.184Z,9220.00
2022-11-16T09:39:03.140Z,9320.00
2022-11-16T09:39:39.771Z,9388.00
2022-11-16T09:40:59.424Z,9464.00
2022-11-16T09:41:43.502Z,9508.00
2022-11-16T09:42:39.157Z,9556.00
2022-11-16T09:43:45.322Z,9628.00
2022-11-16T09:44:39.120Z,9724.00
2022-11-16T09:45:39.101Z,9812.00
2022-11-16T09:46:39.510Z,9864.00
2022-11-16T09:47:40.487Z,9920.00
2022-11-16T09:48:39.688Z,10060.00
2022-11-16T09:49:39.701Z,10172.00
2022-11-16T09:50:39.047Z,10220.00
2022-11-16T09:51:39.028Z,10196.00
2022-11-16T09:52:59.408Z,10308.00
2022-11-16T09:53:39.763Z,10404.00
2022-11-16T09:54:38.994Z,10396.00
2022-11-16T09:55:39.197Z,10488.00
2022-11-16T09:56:38.972Z,10596.00
2022-11-16T09:57:39.170Z,10616.00
2022-11-16T09:58:39.356Z,10656.00
2022-11-16T09:59:38.945Z,10720.00
2022-11-16T10:00:38.979Z,10800.00
2022-11-16T10:01:39.014Z,10860.00
2022-11-16T10:02:39.528Z,10956.00
2022-11-16T10:03:38.992Z,11072.00
2022-11-16T10:04:39.445Z,11056.00
2022-11-16T10:05:58.808Z,11120.00
2022-11-16T10:06:38.892Z,11196.00
2022-11-16T10:07:39.809Z,11208.00
2022-11-16T10:08:38.850Z,11404.00
2022-11-16T10:09:38.852Z,11504.00
2022-11-16T10:10:38.819Z,11612.00
2022-11-16T10:11:39.076Z,11680.00
2022-11-16T10:12:39.040Z,11788.00
2022-11-16T10:13:38.799Z,11880.00
2022-11-16T10:14:38.771Z,11972.00
2022-11-16T10:15:38.785Z,12064.00
2022-11-16T10:16:39.649Z,12136.00
2022-11-16T10:17:38.764Z,12156.00
2022-11-16T10:18:39.044Z,12148.00
2022-11-16T10:19:38.732Z,12184.00
2022-11-16T10:20:38.701Z,12280.00
2022-11-16T10:21:38.699Z,12376.00
2022-11-16T10:22:38.720Z,12468.00
2022-11-16T10:23:38.660Z,12548.00
2022-11-16T10:24:38.667Z,12580.00
2022-11-16T10:25:39.578Z,12668.00
2022-11-16T10:26:38.643Z,12720.00
2022-11-16T10:27:39.608Z,12792.00
2022-11-16T10:28:38.834Z,12868.00
2022-11-16T10:29:39.747Z,12956.00
2022-11-16T10:30:38.790Z,13044.00
2022-11-16T10:31:39.069Z,13136.00
2022-11-16T10:32:38.586Z,13184.00
2022-11-16T10:33:38.581Z,13280.00
2022-11-16T10:34:38.774Z,13408.00
2022-11-16T10:35:38.703Z,13484.00
2022-11-16T10:36:38.819Z,13464.00
2022-11-16T10:37:38.512Z,13556.00
2022-11-16T10:38:38.780Z,13596.00
2022-11-16T10:39:38.495Z,13636.00
2022-11-16T10:40:38.702Z,13776.00
2022-11-16T10:41:38.503Z,13888.00
2022-11-16T10:42:38.696Z,13928.00
2022-11-16T10:43:38.552Z,14036.00
2022-11-16T10:44:38.434Z,14144.00
2022-11-16T10:45:38.427Z,14180.00
2022-11-16T10:46:38.420Z,14160.00
2022-11-16T10:47:38.411Z,14252.00
2022-11-16T10:48:38.397Z,14216.00
2022-11-16T10:49:38.637Z,14212.00
2022-11-16T10:50:38.366Z,14204.00
2022-11-16T10:51:38.386Z,14212.00
2022-11-16T10:52:38.368Z,14264.00
2022-11-16T10:53:38.442Z,14264.00
2022-11-16T10:54:42.952Z,14328.00
2022-11-16T10:55:38.326Z,14396.00
2022-11-16T10:56:38.361Z,14364.00
2022-11-16T10:57:38.310Z,14528.00
2022-11-16T10:58:38.283Z,14496.00
2022-11-16T10:59:38.286Z,14528.00
2022-11-16T11:00:38.343Z,14528.00
2022-11-16T11:01:39.172Z,14592.00
2022-11-16T11:02:38.229Z,14624.00
2022-11-16T11:03:39.790Z,14592.00
2022-11-16T11:04:38.227Z,14688.00
2022-11-16T11:05:38.213Z,14720.00
2022-11-16T11:06:38.221Z,14624.00
2022-11-16T11:07:38.259Z,14624.00
2022-11-16T11:08:38.391Z,14656.00
2022-11-16T11:09:38.151Z,14688.00
2022-11-16T11:10:38.154Z,14720.00
2022-11-16T11:11:38.156Z,14848.00
2022-11-16T11:12:38.405Z,14816.00
2022-11-16T11:13:38.727Z,14848.00
2022-11-16T11:14:38.118Z,14912.00
2022-11-16T11:15:38.107Z,14944.00
2022-11-16T11:16:41.947Z,15008.00
2022-11-16T11:17:38.608Z,15104.00
2022-11-16T11:18:38.285Z,15072.00
2022-11-16T11:19:38.277Z,15008.00
2022-11-16T11:20:44.287Z,15008.00
2022-11-16T11:21:38.031Z,15040.00
2022-11-16T11:22:38.222Z,15008.00
2022-11-16T11:23:38.039Z,15424.00
2022-11-16T11:24:44.471Z,16512.00
2022-11-16T11:25:38.053Z,17920.00
2022-11-16T11:26:38.001Z,17152.00
2022-11-16T11:27:38.844Z,11216.00
2022-11-16T11:28:39.475Z,13308.00
2022-11-16T11:29:39.182Z,15680.00
2022-11-16T11:30:46.814Z,16576.00
2022-11-16T11:31:39.427Z,16832.00
2022-11-16T11:32:39.250Z,17312.00
2022-11-16T11:33:39.402Z,18368.00
2022-11-16T11:34:38.874Z,18432.00
2022-11-16T11:35:37.883Z,19968.00
2022-11-16T11:36:47.202Z,19776.00
2022-11-16T11:37:39.206Z,20192.00
2022-11-16T11:38:39.410Z,18816.00
2022-11-16T11:42:21.455Z,18048.00
2022-11-16T11:43:18.771Z,16576.00
2022-11-16T11:44:13.021Z,16416.00
2022-11-16T11:45:13.878Z,16896.00
2022-11-16T11:46:17.863Z,17504.00
2022-11-16T11:48:16.462Z,17920.00
2022-11-16T11:49:15.128Z,16192.00
2022-11-16T11:50:15.593Z,15968.00
2022-11-16T11:51:12.474Z,16064.00
2022-11-16T11:52:27.426Z,16032.00
2022-11-16T11:53:14.976Z,16256.00
2022-11-16T11:54:13.049Z,9808.00
2022-11-16T11:55:12.806Z,17536.00
2022-11-16T11:56:13.021Z,18752.00
2022-11-16T11:57:18.955Z,18560.00
2022-11-16T11:58:13.076Z,18624.00
2022-11-16T11:59:13.770Z,20288.00
2022-11-16T12:00:12.366Z,20768.00
2022-11-16T12:01:15.958Z,21856.00
2022-11-16T12:02:13.031Z,22496.00
2022-11-16T12:03:13.574Z,24576.00
2022-11-16T12:04:22.395Z,25152.00
2022-11-16T12:05:25.351Z,23872.00
2022-11-16T12:06:27.919Z,24416.00
2022-11-16T12:07:13.072Z,22592.00
2022-11-16T12:08:12.861Z,20896.00
2022-11-16T12:09:12.829Z,19296.00
2022-11-16T12:10:13.231Z,17376.00
2022-11-16T12:11:20.326Z,16704.00
2022-11-16T12:12:15.275Z,16256.00
2022-11-16T12:13:13.054Z,16352.00
2022-11-16T12:14:13.280Z,16096.00
2022-11-16T12:15:13.016Z,15840.00
2022-11-16T12:16:12.695Z,15680.00
2022-11-16T12:17:12.710Z,15648.00
2022-11-16T12:18:12.360Z,15680.00
2022-11-16T12:19:12.119Z,15680.00
2022-11-16T12:20:12.378Z,16000.00
2022-11-16T12:21:13.049Z,15840.00
2022-11-16T12:22:15.914Z,16032.00
2022-11-16T12:23:15.897Z,16448.00
2022-11-16T12:24:15.653Z,16832.00
2022-11-16T12:25:12.086Z,16448.00
2022-11-16T12:26:21.781Z,14528.00
2022-11-16T12:27:15.017Z,8600.00
2022-11-16T12:28:12.255Z,13940.00
2022-11-16T12:29:12.249Z,19168.00
2022-11-16T12:30:12.482Z,18816.00
2022-11-16T12:31:12.226Z,18016.00
2022-11-16T12:32:12.406Z,18144.00
2022-11-16T12:33:15.640Z,18624.00
2022-11-16T12:34:11.977Z,18144.00
2022-11-16T12:35:11.968Z,10048.00
2022-11-16T12:36:11.944Z,9816.00
2022-11-16T12:37:14.755Z,7056.00
2022-11-16T12:38:12.448Z,5684.00
2022-11-16T12:39:12.996Z,6524.00
2022-11-16T12:40:12.571Z,7144.00
2022-11-16T12:41:11.947Z,9572.00
2022-11-16T12:42:12.455Z,8236.00
2022-11-16T12:43:11.863Z,8044.00
2022-11-16T12:44:11.865Z,10136.00
2022-11-16T12:45:13.327Z,13612.00
2022-11-16T12:46:12.068Z,5548.00
2022-11-16T12:47:11.844Z,5724.00
2022-11-16T12:48:11.841Z,6836.00
2022-11-16T12:49:12.119Z,15136.00
2022-11-16T12:50:11.830Z,16384.00
2022-11-16T12:51:11.785Z,17632.00
2022-11-16T12:52:11.779Z,11456.00
2022-11-16T12:53:11.803Z,13056.00
2022-11-16T12:54:11.967Z,11344.00
2022-11-16T12:55:25.993Z,7952.00
2022-11-16T12:56:11.736Z,5656.00
2022-11-16T12:57:11.711Z,9632.00
2022-11-16T12:58:11.719Z,14656.00
2022-11-16T12:59:12.266Z,7844.00
2022-11-16T13:00:11.755Z,9928.00
2022-11-16T13:01:11.943Z,18528.00
2022-11-16T13:02:12.551Z,9252.00
2022-11-16T13:03:11.637Z,12124.00
2022-11-16T13:04:11.662Z,14464.00
2022-11-16T13:05:11.631Z,14240.00
2022-11-16T13:06:11.605Z,14176.00
2022-11-16T13:07:11.807Z,14240.00
2022-11-16T13:08:12.529Z,14432.00
2022-11-16T13:09:11.571Z,14624.00
2022-11-16T13:10:11.815Z,11148.00
2022-11-16T13:11:11.565Z,5672.00
2022-11-16T13:12:12.555Z,6632.00
2022-11-16T13:13:41.513Z,9592.00
2022-11-16T13:14:11.547Z,12004.00
2022-11-16T13:15:15.629Z,5428.00
2022-11-16T13:16:12.061Z,5432.00
2022-11-16T13:17:12.263Z,5652.00
2022-11-16T13:18:11.527Z,6424.00
2022-11-16T13:19:11.534Z,10608.00
2022-11-16T13:20:14.548Z,16064.00
2022-11-16T13:21:11.465Z,14784.00
2022-11-16T13:22:12.044Z,8328.00
2022-11-16T13:23:13.043Z,14368.00
2022-11-16T13:24:11.424Z,7856.00
2022-11-16T13:25:11.420Z,9528.00
2022-11-16T13:26:12.050Z,12424.00
2022-11-16T13:27:14.049Z,12168.00
2022-11-16T13:28:11.388Z,11848.00
2022-11-16T13:29:11.367Z,11112.00
2022-11-16T13:30:11.381Z,17536.00
2022-11-16T13:31:11.344Z,13652.00
2022-11-16T13:32:11.869Z,16544.00
2022-11-16T13:33:11.738Z,17024.00
2022-11-16T13:34:11.346Z,16544.00
2022-11-16T13:35:11.305Z,16160.00
2022-11-16T13:36:12.003Z,17152.00
2022-11-16T13:37:11.288Z,14624.00
2022-11-16T13:38:11.289Z,8720.00
2022-11-16T13:39:11.268Z,7104.00
2022-11-16T13:40:11.318Z,6064.00
2022-11-16T13:41:11.239Z,6284.00
2022-11-16T13:42:11.246Z,10896.00
2022-11-16T13:43:11.209Z,13248.00
2022-11-16T13:44:12.486Z,11848.00
2022-11-16T13:45:11.214Z,8064.00
2022-11-16T13:46:22.328Z,5772.00
2022-11-16T13:47:11.171Z,7036.00
2022-11-16T13:48:11.163Z,7160.00
2022-11-16T13:49:11.159Z,7604.00
2022-11-16T13:50:11.147Z,7272.00
2022-11-16T13:51:11.125Z,5500.00
2022-11-16T13:52:35.640Z,4592.00
2022-11-16T13:54:44.658Z,4084.00
2022-11-16T13:55:11.083Z,3736.00
2022-11-16T13:56:11.158Z,3196.00
2022-11-16T13:57:11.068Z,2920.00
2022-11-16T13:58:11.055Z,2732.00
2022-11-16T13:59:11.048Z,2540.00
2022-11-16T14:00:11.069Z,2316.00
2022-11-16T14:01:11.224Z,2148.00
2022-11-16T14:02:11.020Z,2116.00
2022-11-16T14:03:11.029Z,2152.00
2022-11-16T14:04:10.977Z,2164.00
2022-11-16T14:05:11.014Z,2264.00
2022-11-16T14:06:11.044Z,2236.00
2022-11-16T14:07:11.043Z,2316.00
2022-11-16T14:08:10.955Z,2468.00
2022-11-16T14:09:10.944Z,2280.00
2022-11-16T14:10:10.936Z,2196.00
2022-11-16T14:11:10.965Z,2124.00
2022-11-16T14:12:10.903Z,1924.00
2022-11-16T14:13:10.886Z,1820.00
2022-11-16T14:14:10.886Z,1772.00
2022-11-16T14:15:10.901Z,1724.00
2022-11-16T14:16:10.992Z,1752.00
2022-11-16T14:17:10.846Z,1884.00
2022-11-16T14:18:10.838Z,2180.00
2022-11-16T14:19:10.810Z,2856.00
2022-11-16T14:20:10.810Z,3756.00
2022-11-16T14:21:10.795Z,4584.00
2022-11-16T14:22:10.788Z,5624.00
2022-11-16T14:23:10.786Z,6172.00
2022-11-16T14:24:10.771Z,6544.00
2022-11-16T14:25:10.811Z,6228.00
2022-11-16T14:26:10.965Z,6104.00
2022-11-16T14:27:10.735Z,6032.00
2022-11-16T14:28:10.740Z,5868.00
2022-11-16T14:29:10.703Z,5360.00
2022-11-16T14:30:10.730Z,4476.00
2022-11-16T14:31:10.832Z,4104.00
2022-11-16T14:32:10.703Z,4052.00
2022-11-16T14:33:10.659Z,3692.00
2022-11-16T14:34:10.655Z,3120.00
2022-11-16T14:35:11.094Z,2848.00
2022-11-16T14:36:10.671Z,2712.00
2022-11-16T14:37:10.634Z,2712.00
2022-11-16T14:38:10.624Z,2752.00
2022-11-16T14:39:10.643Z,2716.00
2022-11-16T14:40:10.580Z,2552.00
2022-11-16T14:41:10.576Z,2388.00
2022-11-16T14:42:10.569Z,2140.00
2022-11-16T14:43:17.787Z,1920.00
2022-11-16T14:44:10.562Z,1800.00
2022-11-16T14:45:10.536Z,1636.00
2022-11-16T14:46:10.538Z,1680.00
2022-11-16T14:47:10.519Z,1812.00
2022-11-16T14:48:10.508Z,1820.00
2022-11-16T14:49:10.477Z,1808.00
2022-11-16T14:50:10.482Z,1588.00
2022-11-16T14:51:10.512Z,1372.00
2022-11-16T14:52:10.490Z,1308.00
2022-11-16T14:53:10.454Z,1296.00
2022-11-16T14:54:10.448Z,1240.00
2022-11-16T14:55:10.421Z,1188.00
2022-11-16T14:56:10.512Z,1200.00
2022-11-16T14:57:10.411Z,1352.00
2022-11-16T14:58:10.394Z,1360.00
2022-11-16T14:59:10.384Z,1224.00
2022-11-16T15:00:10.379Z,1100.00
2022-11-16T15:01:10.363Z,1072.00
2022-11-16T15:02:10.339Z,1116.00
2022-11-16T15:03:10.401Z,1088.00
2022-11-16T15:04:10.340Z,1056.00
2022-11-16T15:05:10.310Z,992.00
2022-11-16T15:06:10.327Z,936.00
2022-11-16T15:07:10.323Z,924.00
2022-11-16T15:08:10.278Z,972.00
2022-11-16T15:09:10.286Z,992.00
2022-11-16T15:10:10.282Z,948.00
2022-11-16T15:11:10.250Z,920.00
2022-11-16T15:12:11.088Z,932.00
2022-11-16T15:13:10.220Z,932.00
2022-11-16T15:14:10.285Z,920.00
2022-11-16T15:15:10.194Z,916.00
2022-11-16T15:16:10.199Z,944.00
2022-11-16T15:17:10.175Z,964.00
2022-11-16T15:18:10.183Z,956.00
2022-11-16T15:19:10.169Z,912.00
2022-11-16T15:20:10.173Z,872.00
2022-11-16T15:21:10.169Z,804.00
2022-11-16T15:22:10.123Z,736.00
2022-11-16T15:24:28.913Z,656.00
2022-11-16T15:25:04.115Z,608.00
2022-11-16T15:26:04.057Z,568.00
2022-11-16T15:27:04.100Z,524.00
2022-11-16T15:28:04.048Z,488.00
2022-11-16T15:29:04.023Z,452.00
2022-11-16T15:30:04.077Z,412.00
2022-11-16T15:31:04.053Z,368.00
2022-11-16T15:32:03.996Z,320.00
2022-11-16T15:33:03.969Z,272.00
2022-11-16T15:34:03.983Z,224.00
2022-11-16T15:35:05.548Z,192.00
2022-11-16T15:36:03.947Z,172.00
2022-11-16T15:37:03.954Z,152.00
2022-11-16T15:38:03.927Z,140.00
2022-11-16T15:39:03.910Z,140.00
2022-11-16T15:40:03.915Z,140.00
2022-11-16T15:41:03.899Z,132.00
2022-11-16T15:42:04.451Z,120.00
2022-11-16T15:43:03.875Z,112.00
2022-11-16T15:44:17.586Z,100.00
2022-11-16T15:45:03.876Z,92.00
2022-11-16T15:46:03.835Z,88.00
2022-11-16T15:47:03.835Z,84.00
2022-11-16T15:48:03.840Z,88.00
2022-11-16T15:49:03.838Z,92.00
2022-11-16T15:50:03.791Z,96.00
2022-11-16T15:51:05.094Z,88.00
2022-11-16T15:52:03.781Z,80.00
2022-11-16T15:53:03.762Z,72.00
2022-11-16T15:54:03.749Z,64.00
2022-11-16T15:55:03.780Z,60.00
2022-11-16T15:56:03.770Z,56.00
2022-11-16T15:57:03.711Z,56.00
2022-11-16T15:58:03.773Z,52.00
2022-11-16T15:59:03.684Z,48.00
2022-11-16T16:00:03.769Z,40.00
2022-11-16T16:01:03.712Z,36.00
2022-11-16T16:02:03.658Z,32.00
2022-11-16T16:03:03.637Z,24.00
2022-11-16T16:04:03.622Z,24.00
2022-11-16T16:05:03.669Z,20.00
2022-11-16T16:06:03.621Z,16.00
2022-11-16T16:07:03.685Z,12.00
2022-11-16T16:08:03.629Z,12.00
2022-11-16T16:09:03.568Z,8.00
2022-11-16T16:10:03.662Z,8.00
2022-11-16T16:11:03.609Z,8.00
2022-11-16T16:12:03.545Z,4.00
2022-11-16T16:13:03.561Z,4.00
2022-11-16T16:14:03.536Z,4.00
2022-11-16T16:15:03.542Z,4.00
2022-11-16T16:16:03.523Z,4.00
2022-11-16T16:17:03.496Z,4.00
2022-11-16T16:18:03.496Z,4.00
2022-11-16T16:19:09.284Z,0.00
2022-11-16T16:20:03.629Z,0.00
2022-11-16T16:21:03.465Z,0.00
2022-11-16T16:22:03.428Z,0.00
2022-11-16T16:23:03.423Z,0.00
2022-11-16T16:24:03.437Z,0.00
2022-11-16T16:25:03.434Z,0.00
2022-11-16T16:26:03.417Z,0.00
2022-11-16T16:27:03.366Z,0.00
2022-11-16T16:28:03.413Z,0.00
2022-11-16T16:29:03.401Z,0.00
2022-11-16T16:30:03.463Z,0.00
2022-11-16T16:31:03.344Z,0.00
2022-11-16T16:32:03.379Z,0.00
2022-11-16T16:33:03.310Z,0.00
2022-11-16T16:34:03.299Z,0.00
2022-11-16T16:35:03.289Z,0.00
2022-11-16T16:36:03.273Z,0.00
2022-11-16T16:37:03.281Z,0.00
2022-11-16T16:38:03.257Z,0.00
2022-11-16T16:39:03.264Z,0.00
2022-11-16T16:40:03.364Z,0.00
2022-11-16T16:41:03.226Z,0.00
2022-11-16T16:42:03.241Z,0.00
2022-11-16T16:43:03.220Z,0.00
2022-11-16T16:44:03.192Z,0.00
2022-11-16T16:45:03.199Z,0.00
2022-11-16T16:46:03.167Z,0.00
2022-11-16T16:47:03.137Z,0.00
2022-11-16T16:48:03.154Z,0.00
2022-11-16T16:49:03.125Z,0.00
2022-11-16T16:50:03.113Z,0.00
2022-11-16T16:51:03.127Z,0.00
2022-11-16T16:52:03.102Z,0.00
2022-11-16T16:53:03.083Z,0.00
2022-11-16T16:54:03.070Z,0.00
2022-11-16T16:55:03.061Z,0.00
2022-11-16T16:56:03.043Z,0.00
2022-11-16T16:57:03.044Z,0.00
2022-11-16T16:58:03.018Z,0.00
2022-11-16T16:59:03.004Z,0.00
2022-11-16T17:00:03.096Z,0.00
2022-11-16T17:01:03.035Z,0.00
2022-11-16T17:02:02.979Z,0.00
2022-11-16T17:03:02.967Z,0.00
2022-11-16T17:04:02.969Z,0.00
2022-11-16T17:05:02.968Z,0.00
2022-11-16T17:06:02.922Z,0.00
2022-11-16T17:07:03.060Z,0.00
2022-11-16T17:08:02.925Z,0.00
2022-11-16T17:09:02.892Z,0.00
2022-11-16T17:10:02.894Z,0.00
2022-11-16T17:11:02.870Z,0.00
2022-11-16T17:12:02.855Z,0.00
2022-11-16T17:13:02.853Z,0.00
2022-11-16T17:14:02.844Z,0.00
2022-11-16T17:15:02.871Z,0.00
2022-11-16T17:16:02.832Z,0.00
2022-11-16T17:17:02.813Z,0.00
2022-11-16T17:18:02.806Z,0.00
2022-11-16T17:19:02.793Z,0.00
2022-11-16T17:20:02.773Z,0.00
2022-11-16T17:21:02.776Z,0.00
2022-11-16T17:22:02.772Z,0.00
2022-11-16T17:23:02.745Z,0.00
2022-11-16T17:24:02.748Z,0.00
2022-11-16T17:25:02.724Z,0.00
2022-11-16T17:26:02.712Z,0.00
2022-11-16T17:27:02.718Z,0.00
2022-11-16T17:28:02.705Z,0.00
2022-11-16T17:29:02.675Z,0.00
2022-11-16T17:30:02.655Z,0.00
2022-11-16T17:31:02.696Z,0.00
2022-11-16T17:32:02.664Z,0.00
2022-11-16T17:33:02.645Z,0.00
2022-11-16T17:34:02.610Z,0.00